createdAt,value
2017-07-12T00:00:22.193Z,0
2017-07-12T00:01:21.862Z,0
2017-07-12T00:02:22.468Z,0
2017-07-12T00:03:22.451Z,0
2017-07-12T00:04:22.437Z,0
2017-07-12T00:05:22.424Z,0
2017-07-12T00:06:22.401Z,0
2017-07-12T00:07:22.101Z,0
2017-07-12T00:08:22.453Z,0
2017-07-12T00:09:21.770Z,0
2017-07-12T00:10:22.058Z,0
2017-07-12T00:11:22.373Z,0
2017-07-12T00:12:21.730Z,0
2017-07-12T00:13:22.347Z,0
2017-07-12T00:14:22.017Z,0
2017-07-12T00:15:22.299Z,0
2017-07-12T00:16:22.301Z,0
2017-07-12T00:17:22.284Z,0
2017-07-12T00:18:22.294Z,0
2017-07-12T00:19:21.955Z,0
2017-07-12T00:20:21.947Z,0
2017-07-12T00:21:22.252Z,0
2017-07-12T00:22:21.917Z,0
2017-07-12T00:23:20.980Z,0
2017-07-12T00:24:21.791Z,0
2017-07-12T00:25:22.103Z,0
2017-07-12T00:26:21.887Z,0
2017-07-12T00:27:21.868Z,0
2017-07-12T00:28:21.850Z,0
2017-07-12T00:29:22.378Z,0
2017-07-12T00:30:22.045Z,0
2017-07-12T00:31:35.775Z,0
2017-07-12T00:32:22.112Z,0
2017-07-12T00:33:22.111Z,0
2017-07-12T00:34:22.101Z,0
2017-07-12T00:35:21.476Z,0
2017-07-12T00:36:22.072Z,0
2017-07-12T00:37:22.060Z,0
2017-07-12T00:38:22.059Z,0
2017-07-12T00:39:21.737Z,0
2017-07-12T00:40:21.720Z,0
2017-07-12T00:41:21.713Z,0
2017-07-12T00:42:21.682Z,0
2017-07-12T00:43:21.687Z,0
2017-07-12T00:44:21.680Z,0
2017-07-12T00:45:21.971Z,0
2017-07-12T00:46:21.656Z,0
2017-07-12T00:47:21.971Z,0
2017-07-12T00:48:21.638Z,0
2017-07-12T00:49:21.301Z,0
2017-07-12T00:50:21.923Z,0
2017-07-12T00:51:21.920Z,0
2017-07-12T00:52:21.887Z,0
2017-07-12T00:53:21.593Z,0
2017-07-12T00:54:21.877Z,0
2017-07-12T00:55:21.551Z,0
2017-07-12T00:56:21.247Z,0
2017-07-12T00:57:21.829Z,0
2017-07-12T00:58:21.216Z,0
2017-07-12T00:59:21.506Z,0
2017-07-12T01:00:21.492Z,0
2017-07-12T01:01:21.792Z,0
2017-07-12T01:02:21.791Z,0
2017-07-12T01:03:21.180Z,0
2017-07-12T01:04:21.753Z,0
2017-07-12T01:05:21.132Z,0
2017-07-12T01:06:21.115Z,0
2017-07-12T01:07:21.411Z,0
2017-07-12T01:08:21.703Z,0
2017-07-12T01:09:21.705Z,0
2017-07-12T01:10:21.899Z,0
2017-07-12T01:11:21.891Z,0
2017-07-12T01:12:21.674Z,0
2017-07-12T01:13:21.339Z,0
2017-07-12T01:14:21.640Z,0
2017-07-12T01:15:21.637Z,0
2017-07-12T01:16:21.609Z,0
2017-07-12T01:17:21.657Z,0
2017-07-12T01:18:21.278Z,0
2017-07-12T01:19:21.277Z,0
2017-07-12T01:20:21.261Z,0
2017-07-12T01:21:21.562Z,0
2017-07-12T01:22:21.232Z,0
2017-07-12T01:23:20.294Z,0
2017-07-12T01:24:21.583Z,0
2017-07-12T01:25:21.512Z,0
2017-07-12T01:26:21.194Z,0
2017-07-12T01:27:21.501Z,0
2017-07-12T01:28:21.485Z,0
2017-07-12T01:29:21.470Z,0
2017-07-12T01:30:21.463Z,0
2017-07-12T01:31:21.451Z,0
2017-07-12T01:32:21.455Z,0
2017-07-12T01:33:21.431Z,0
2017-07-12T01:34:21.410Z,0
2017-07-12T01:35:21.398Z,0
2017-07-12T01:36:21.399Z,0
2017-07-12T01:37:21.386Z,0
2017-07-12T01:38:21.063Z,0
2017-07-12T01:39:21.372Z,0
2017-07-12T01:40:21.038Z,0
2017-07-12T01:41:21.345Z,0
2017-07-12T01:42:21.330Z,0
2017-07-12T01:43:21.017Z,0
2017-07-12T01:44:21.297Z,0
2017-07-12T01:45:21.285Z,0
2017-07-12T01:46:20.959Z,0
2017-07-12T01:47:21.255Z,0
2017-07-12T01:48:20.938Z,0
2017-07-12T01:49:21.245Z,0
2017-07-12T01:50:20.922Z,0
2017-07-12T01:51:21.230Z,0
2017-07-12T01:52:20.897Z,0
2017-07-12T01:53:20.887Z,0
2017-07-12T01:54:21.196Z,0
2017-07-12T01:55:21.163Z,0
2017-07-12T01:56:21.158Z,0
2017-07-12T01:57:21.148Z,0
2017-07-12T01:58:21.136Z,0
2017-07-12T01:59:20.811Z,0
2017-07-12T02:00:20.799Z,0
2017-07-12T02:01:21.094Z,0
2017-07-12T02:02:21.091Z,0
2017-07-12T02:03:21.090Z,0
2017-07-12T02:04:20.143Z,0
2017-07-12T02:05:21.063Z,0
2017-07-12T02:06:20.723Z,0
2017-07-12T02:07:20.724Z,0
2017-07-12T02:08:21.027Z,0
2017-07-12T02:09:20.085Z,0
2017-07-12T02:10:21.000Z,0
2017-07-12T02:11:20.679Z,0
2017-07-12T02:12:21.036Z,0
2017-07-12T02:13:20.962Z,0
2017-07-12T02:14:20.940Z,0
2017-07-12T02:15:20.956Z,0
2017-07-12T02:16:20.614Z,0
2017-07-12T02:17:20.609Z,0
2017-07-12T02:18:20.608Z,0
2017-07-12T02:19:20.595Z,0
2017-07-12T02:20:20.571Z,0
2017-07-12T02:21:20.256Z,0
2017-07-12T02:22:20.547Z,0
2017-07-12T02:23:19.922Z,0
2017-07-12T02:24:20.533Z,0
2017-07-12T02:25:20.851Z,0
2017-07-12T02:26:20.193Z,0
2017-07-12T02:27:20.496Z,0
2017-07-12T02:28:20.794Z,0
2017-07-12T02:29:20.793Z,0
2017-07-12T02:30:20.762Z,0
2017-07-12T02:31:20.451Z,0
2017-07-12T02:32:20.756Z,0
2017-07-12T02:33:20.114Z,0
2017-07-12T02:34:20.730Z,0
2017-07-12T02:35:20.709Z,0
2017-07-12T02:36:20.386Z,0
2017-07-12T02:37:20.383Z,0
2017-07-12T02:38:20.390Z,0
2017-07-12T02:39:20.370Z,0
2017-07-12T02:40:20.670Z,0
2017-07-12T02:41:20.035Z,0
2017-07-12T02:42:20.027Z,0
2017-07-12T02:43:20.307Z,0
2017-07-12T02:44:20.312Z,0
2017-07-12T02:45:20.288Z,0
2017-07-12T02:46:20.293Z,0
2017-07-12T02:47:20.278Z,0
2017-07-12T02:48:20.266Z,0
2017-07-12T02:49:20.244Z,0
2017-07-12T02:50:20.238Z,0
2017-07-12T02:51:20.228Z,0
2017-07-12T02:52:20.548Z,0
2017-07-12T02:53:20.507Z,0
2017-07-12T02:54:20.520Z,0
2017-07-12T02:55:20.502Z,0
2017-07-12T02:56:20.478Z,0
2017-07-12T02:57:20.491Z,0
2017-07-12T02:58:20.174Z,0
2017-07-12T02:59:20.144Z,0
2017-07-12T03:00:20.453Z,0
2017-07-12T03:01:20.129Z,0
2017-07-12T03:02:19.813Z,0
2017-07-12T03:03:19.795Z,0
2017-07-12T03:04:19.779Z,0
2017-07-12T03:05:19.465Z,0
2017-07-12T03:06:20.066Z,0
2017-07-12T03:07:20.049Z,0
2017-07-12T03:08:20.055Z,0
2017-07-12T03:09:20.341Z,0
2017-07-12T03:10:20.027Z,0
2017-07-12T03:11:20.310Z,0
2017-07-12T03:12:20.010Z,0
2017-07-12T03:13:19.993Z,0
2017-07-12T03:14:20.024Z,0
2017-07-12T03:15:19.969Z,0
2017-07-12T03:16:20.267Z,0
2017-07-12T03:17:19.943Z,0
2017-07-12T03:18:19.938Z,0
2017-07-12T03:19:19.610Z,0
2017-07-12T03:20:19.903Z,0
2017-07-12T03:21:19.902Z,0
2017-07-12T03:22:19.572Z,0
2017-07-12T03:23:18.942Z,0
2017-07-12T03:24:20.172Z,0
2017-07-12T03:25:20.167Z,0
2017-07-12T03:26:20.173Z,0
2017-07-12T03:27:19.829Z,0
2017-07-12T03:28:20.127Z,5
2017-07-12T03:29:20.121Z,5
2017-07-12T03:30:19.174Z,5
2017-07-12T03:31:20.090Z,5
2017-07-12T03:32:19.778Z,10
2017-07-12T03:33:19.766Z,10
2017-07-12T03:34:20.055Z,15
2017-07-12T03:35:20.051Z,20
2017-07-12T03:36:19.731Z,20
2017-07-12T03:37:20.033Z,20
2017-07-12T03:38:19.710Z,20
2017-07-12T03:39:19.702Z,20
2017-07-12T03:40:19.695Z,25
2017-07-12T03:41:19.985Z,25
2017-07-12T03:42:19.663Z,30
2017-07-12T03:43:19.967Z,35
2017-07-12T03:44:19.951Z,35
2017-07-12T03:45:19.312Z,40
2017-07-12T03:46:19.620Z,40
2017-07-12T03:47:19.609Z,45
2017-07-12T03:48:19.905Z,50
2017-07-12T03:49:19.606Z,55
2017-07-12T03:50:19.886Z,65
2017-07-12T03:51:19.887Z,70
2017-07-12T03:52:19.571Z,85
2017-07-12T03:53:19.223Z,100
2017-07-12T03:54:19.838Z,105
2017-07-12T03:55:19.512Z,115
2017-07-12T03:56:19.497Z,110
2017-07-12T03:57:19.807Z,105
2017-07-12T03:58:19.803Z,95
2017-07-12T03:59:19.780Z,85
2017-07-12T04:00:19.777Z,75
2017-07-12T04:01:19.497Z,70
2017-07-12T04:02:19.441Z,75
2017-07-12T04:03:19.122Z,80
2017-07-12T04:04:19.421Z,95
2017-07-12T04:05:19.721Z,110
2017-07-12T04:06:19.083Z,115
2017-07-12T04:07:19.691Z,110
2017-07-12T04:08:19.681Z,105
2017-07-12T04:09:19.692Z,100
2017-07-12T04:10:19.654Z,90
2017-07-12T04:11:19.664Z,95
2017-07-12T04:12:19.347Z,105
2017-07-12T04:13:19.312Z,115
2017-07-12T04:14:18.994Z,110
2017-07-12T04:15:19.308Z,115
2017-07-12T04:16:19.289Z,120
2017-07-12T04:17:19.341Z,130
2017-07-12T04:18:19.575Z,150
2017-07-12T04:19:19.557Z,160
2017-07-12T04:20:19.566Z,175
2017-07-12T04:21:19.544Z,195
2017-07-12T04:22:19.231Z,200
2017-07-12T04:23:18.280Z,210
2017-07-12T04:24:19.199Z,220
2017-07-12T04:25:19.187Z,215
2017-07-12T04:26:19.200Z,185
2017-07-12T04:27:19.175Z,155
2017-07-12T04:28:19.153Z,140
2017-07-12T04:29:19.151Z,130
2017-07-12T04:30:19.146Z,135
2017-07-12T04:31:19.445Z,115
2017-07-12T04:32:19.435Z,100
2017-07-12T04:33:19.111Z,95
2017-07-12T04:34:19.095Z,110
2017-07-12T04:35:19.389Z,115
2017-07-12T04:36:19.082Z,130
2017-07-12T04:37:19.374Z,145
2017-07-12T04:38:19.350Z,170
2017-07-12T04:39:18.728Z,200
2017-07-12T04:40:19.325Z,225
2017-07-12T04:41:19.334Z,245
2017-07-12T04:42:19.319Z,250
2017-07-12T04:43:19.303Z,225
2017-07-12T04:44:18.978Z,195
2017-07-12T04:45:18.978Z,215
2017-07-12T04:46:19.263Z,255
2017-07-12T04:47:19.255Z,245
2017-07-12T04:48:19.252Z,255
2017-07-12T04:49:18.925Z,255
2017-07-12T04:50:18.603Z,270
2017-07-12T04:51:18.905Z,240
2017-07-12T04:52:18.888Z,200
2017-07-12T04:53:18.893Z,185
2017-07-12T04:54:18.932Z,190
2017-07-12T04:55:18.545Z,185
2017-07-12T04:56:19.147Z,175
2017-07-12T04:57:19.141Z,165
2017-07-12T04:58:18.824Z,160
2017-07-12T04:59:19.134Z,170
2017-07-12T05:00:19.123Z,190
2017-07-12T05:01:18.470Z,215
2017-07-12T05:02:18.465Z,235
2017-07-12T05:03:19.070Z,250
2017-07-12T05:04:18.142Z,265
2017-07-12T05:05:19.068Z,275
2017-07-12T05:06:18.729Z,310
2017-07-12T05:07:19.034Z,310
2017-07-12T05:08:19.025Z,310
2017-07-12T05:09:18.692Z,330
2017-07-12T05:10:18.684Z,370
2017-07-12T05:11:18.687Z,390
2017-07-12T05:12:18.982Z,345
2017-07-12T05:13:18.967Z,310
2017-07-12T05:14:18.028Z,285
2017-07-12T05:15:18.943Z,270
2017-07-12T05:16:18.325Z,250
2017-07-12T05:17:18.933Z,240
2017-07-12T05:18:18.609Z,265
2017-07-12T05:19:18.916Z,300
2017-07-12T05:20:18.280Z,330
2017-07-12T05:21:18.934Z,365
2017-07-12T05:22:18.264Z,375
2017-07-12T05:23:17.614Z,360
2017-07-12T05:24:18.873Z,355
2017-07-12T05:25:18.530Z,370
2017-07-12T05:26:18.894Z,395
2017-07-12T05:27:18.817Z,385
2017-07-12T05:28:18.814Z,360
2017-07-12T05:29:18.487Z,335
2017-07-12T05:30:18.490Z,320
2017-07-12T05:31:18.460Z,305
2017-07-12T05:32:18.457Z,310
2017-07-12T05:33:18.463Z,315
2017-07-12T05:34:18.757Z,310
2017-07-12T05:35:18.451Z,305
2017-07-12T05:36:18.410Z,325
2017-07-12T05:37:18.100Z,350
2017-07-12T05:38:18.407Z,400
2017-07-12T05:39:18.704Z,505
2017-07-12T05:40:18.694Z,585
2017-07-12T05:41:18.387Z,525
2017-07-12T05:42:18.361Z,495
2017-07-12T05:43:17.420Z,470
2017-07-12T05:44:18.335Z,470
2017-07-12T05:45:18.019Z,525
2017-07-12T05:46:18.630Z,650
2017-07-12T05:47:18.619Z,755
2017-07-12T05:48:18.607Z,850
2017-07-12T05:49:18.593Z,740
2017-07-12T05:50:18.594Z,735
2017-07-12T05:51:18.259Z,835
2017-07-12T05:52:18.561Z,760
2017-07-12T05:53:18.545Z,935
2017-07-12T05:54:18.530Z,960
2017-07-12T05:55:18.529Z,1100
2017-07-12T05:56:18.524Z,915
2017-07-12T05:57:18.195Z,930
2017-07-12T05:58:18.180Z,1025
2017-07-12T05:59:17.874Z,910
2017-07-12T06:00:18.466Z,890
2017-07-12T06:01:18.483Z,860
2017-07-12T06:02:18.462Z,810
2017-07-12T06:03:18.458Z,750
2017-07-12T06:04:18.426Z,1085
2017-07-12T06:05:18.426Z,655
2017-07-12T06:06:18.147Z,640
2017-07-12T06:07:18.404Z,615
2017-07-12T06:08:18.386Z,640
2017-07-12T06:09:18.374Z,625
2017-07-12T06:10:18.064Z,675
2017-07-12T06:11:18.362Z,805
2017-07-12T06:12:18.349Z,1435
2017-07-12T06:13:18.331Z,1605
2017-07-12T06:14:18.021Z,2305
2017-07-12T06:15:18.312Z,2030
2017-07-12T06:16:18.321Z,1415
2017-07-12T06:17:18.305Z,1020
2017-07-12T06:18:18.283Z,1965
2017-07-12T06:19:17.654Z,825
2017-07-12T06:20:18.266Z,2180
2017-07-12T06:21:18.263Z,2245
2017-07-12T06:22:17.628Z,2065
2017-07-12T06:23:17.304Z,1835
2017-07-12T06:24:18.226Z,1020
2017-07-12T06:25:18.208Z,1005
2017-07-12T06:26:18.203Z,1995
2017-07-12T06:27:18.206Z,1900
2017-07-12T06:28:18.195Z,2505
2017-07-12T06:29:18.163Z,1205
2017-07-12T06:30:18.163Z,1230
2017-07-12T06:31:17.863Z,1035
2017-07-12T06:32:17.854Z,1020
2017-07-12T06:33:18.134Z,955
2017-07-12T06:34:17.498Z,895
2017-07-12T06:35:17.807Z,915
2017-07-12T06:36:18.117Z,985
2017-07-12T06:37:18.103Z,1170
2017-07-12T06:38:18.107Z,2580
2017-07-12T06:39:18.092Z,2555
2017-07-12T06:40:18.144Z,1660
2017-07-12T06:41:18.068Z,2195
2017-07-12T06:42:18.061Z,975
2017-07-12T06:43:18.051Z,1485
2017-07-12T06:44:18.059Z,870
2017-07-12T06:45:18.038Z,1325
2017-07-12T06:46:17.722Z,855
2017-07-12T06:47:18.016Z,980
2017-07-12T06:48:17.702Z,1750
2017-07-12T06:49:17.996Z,1035
2017-07-12T06:50:17.678Z,2435
2017-07-12T06:51:17.682Z,900
2017-07-12T06:52:17.969Z,2395
2017-07-12T06:53:17.339Z,2110
2017-07-12T06:54:17.951Z,2025
2017-07-12T06:55:17.958Z,2205
2017-07-12T06:56:17.320Z,2430
2017-07-12T06:57:17.932Z,2575
2017-07-12T06:58:17.915Z,2635
2017-07-12T06:59:17.915Z,2455
2017-07-12T07:00:17.919Z,2210
2017-07-12T07:01:17.901Z,2400
2017-07-12T07:02:17.597Z,2605
2017-07-12T07:03:17.884Z,2480
2017-07-12T07:04:17.868Z,2170
2017-07-12T07:05:17.858Z,2290
2017-07-12T07:06:17.849Z,2760
2017-07-12T07:07:17.526Z,2645
2017-07-12T07:08:17.833Z,2705
2017-07-12T07:09:17.838Z,2500
2017-07-12T07:10:17.819Z,2215
2017-07-12T07:11:17.815Z,2380
2017-07-12T07:12:17.191Z,2440
2017-07-12T07:13:17.480Z,2335
2017-07-12T07:14:17.801Z,2585
2017-07-12T07:15:17.462Z,2690
2017-07-12T07:16:17.459Z,2350
2017-07-12T07:17:17.764Z,1430
2017-07-12T07:18:17.499Z,1370
2017-07-12T07:19:17.789Z,1210
2017-07-12T07:20:17.434Z,1385
2017-07-12T07:21:16.801Z,1200
2017-07-12T07:22:17.410Z,1400
2017-07-12T07:23:16.792Z,2120
2017-07-12T07:24:17.402Z,2900
2017-07-12T07:25:17.392Z,3225
2017-07-12T07:26:17.703Z,2780
2017-07-12T07:27:17.690Z,2335
2017-07-12T07:28:17.698Z,2280
2017-07-12T07:29:17.360Z,2035
2017-07-12T07:30:17.367Z,2710
2017-07-12T07:31:17.659Z,1850
2017-07-12T07:32:17.034Z,3540
2017-07-12T07:33:17.648Z,2500
2017-07-12T07:34:17.635Z,2700
2017-07-12T07:35:17.007Z,2605
2017-07-12T07:36:17.627Z,1120
2017-07-12T07:37:17.606Z,1055
2017-07-12T07:38:17.596Z,1285
2017-07-12T07:39:17.295Z,2920
2017-07-12T07:40:17.280Z,2515
2017-07-12T07:41:17.596Z,2955
2017-07-12T07:42:17.584Z,3365
2017-07-12T07:43:17.277Z,3630
2017-07-12T07:44:17.267Z,3360
2017-07-12T07:45:17.557Z,3135
2017-07-12T07:46:17.250Z,2095
2017-07-12T07:47:17.535Z,2160
2017-07-12T07:48:17.531Z,1770
2017-07-12T07:49:17.533Z,2705
2017-07-12T07:50:16.905Z,3055
2017-07-12T07:51:17.511Z,3770
2017-07-12T07:52:17.210Z,1750
2017-07-12T07:53:17.199Z,2645
2017-07-12T07:54:17.508Z,2815
2017-07-12T07:55:17.186Z,3630
2017-07-12T07:56:17.178Z,2720
2017-07-12T07:57:17.496Z,3570
2017-07-12T07:58:17.482Z,3065
2017-07-12T07:59:17.161Z,1985
2017-07-12T08:00:17.470Z,2080
2017-07-12T08:01:17.452Z,3540
2017-07-12T08:02:17.460Z,3020
2017-07-12T08:03:16.828Z,2385
2017-07-12T08:04:17.513Z,2260
2017-07-12T08:05:17.125Z,2200
2017-07-12T08:06:17.114Z,2105
2017-07-12T08:07:17.420Z,2275
2017-07-12T08:08:17.420Z,1880
2017-07-12T08:09:17.403Z,1895
2017-07-12T08:10:17.399Z,1580
2017-07-12T08:11:17.094Z,1780
2017-07-12T08:12:16.466Z,2065
2017-07-12T08:13:17.405Z,2035
2017-07-12T08:14:16.752Z,2245
2017-07-12T08:15:17.368Z,3635
2017-07-12T08:16:16.740Z,2150
2017-07-12T08:17:17.047Z,3650
2017-07-12T08:18:17.334Z,2395
2017-07-12T08:19:17.334Z,2990
2017-07-12T08:20:17.006Z,2100
2017-07-12T08:21:17.306Z,2795
2017-07-12T08:22:16.999Z,2165
2017-07-12T08:23:16.670Z,2225
2017-07-12T08:24:16.975Z,2810
2017-07-12T08:25:17.283Z,2375
2017-07-12T08:26:17.266Z,2390
2017-07-12T08:27:16.960Z,2305
2017-07-12T08:28:17.241Z,2590
2017-07-12T08:29:16.941Z,2555
2017-07-12T08:30:16.936Z,2485
2017-07-12T08:31:16.937Z,2835
2017-07-12T08:32:17.234Z,2825
2017-07-12T08:33:17.220Z,2770
2017-07-12T08:34:16.936Z,2555
2017-07-12T08:35:16.577Z,2415
2017-07-12T08:36:16.890Z,4220
2017-07-12T08:37:16.877Z,3785
2017-07-12T08:38:16.569Z,2355
2017-07-12T08:39:16.853Z,2895
2017-07-12T08:40:17.160Z,2400
2017-07-12T08:41:17.157Z,2460
2017-07-12T08:42:17.150Z,3130
2017-07-12T08:43:17.135Z,2665
2017-07-12T08:44:16.824Z,4060
2017-07-12T08:45:16.812Z,2355
2017-07-12T08:46:17.131Z,3125
2017-07-12T08:47:16.485Z,3265
2017-07-12T08:48:17.112Z,2715
2017-07-12T08:49:16.779Z,2525
2017-07-12T08:50:16.780Z,2945
2017-07-12T08:51:17.101Z,2545
2017-07-12T08:52:16.752Z,2130
2017-07-12T08:53:16.769Z,2195
2017-07-12T08:54:17.054Z,2255
2017-07-12T08:55:16.740Z,1545
2017-07-12T08:56:16.733Z,1090
2017-07-12T08:57:16.725Z,1210
2017-07-12T08:58:16.725Z,1880
2017-07-12T08:59:17.032Z,2555
2017-07-12T09:00:17.002Z,1580
2017-07-12T09:01:17.018Z,1175
2017-07-12T09:02:16.694Z,1290
2017-07-12T09:03:16.367Z,1495
2017-07-12T09:04:16.064Z,2010
2017-07-12T09:05:16.990Z,2805
2017-07-12T09:06:16.976Z,3765
2017-07-12T09:07:16.656Z,2005
2017-07-12T09:08:16.955Z,1600
2017-07-12T09:09:16.946Z,1495
2017-07-12T09:10:16.958Z,1320
2017-07-12T09:11:16.945Z,2865
2017-07-12T09:12:16.003Z,4300
2017-07-12T09:13:16.926Z,2125
2017-07-12T09:14:16.915Z,3040
2017-07-12T09:15:16.911Z,2950
2017-07-12T09:16:16.911Z,2575
2017-07-12T09:17:16.662Z,5125
2017-07-12T09:18:16.899Z,3435
2017-07-12T09:19:16.905Z,2395
2017-07-12T09:20:16.885Z,3475
2017-07-12T09:21:16.557Z,3095
2017-07-12T09:22:16.242Z,4790
2017-07-12T09:23:16.246Z,4080
2017-07-12T09:33:16.503Z,4050
2017-07-12T09:34:16.185Z,3360
2017-07-12T09:35:16.508Z,4005
2017-07-12T09:36:16.483Z,4235
2017-07-12T09:37:16.474Z,4805
2017-07-12T09:38:16.472Z,2165
2017-07-12T09:39:16.479Z,4975
2017-07-12T09:40:16.769Z,4270
2017-07-12T09:41:16.446Z,1965
2017-07-12T09:42:16.447Z,1400
2017-07-12T09:43:16.455Z,4770
2017-07-12T09:44:16.448Z,4525
2017-07-12T09:45:16.442Z,4130
2017-07-12T09:46:16.744Z,2280
2017-07-12T09:47:16.435Z,1090
2017-07-12T09:48:16.117Z,1380
2017-07-12T09:49:16.735Z,1655
2017-07-12T09:50:16.406Z,1575
2017-07-12T09:51:16.717Z,1835
2017-07-12T09:52:15.785Z,1920
2017-07-12T09:53:16.419Z,5040
2017-07-12T09:54:16.700Z,5050
2017-07-12T09:55:16.689Z,1220
2017-07-12T09:56:16.383Z,1305
2017-07-12T09:57:16.374Z,4395
2017-07-12T09:58:16.356Z,3270
2017-07-12T09:59:16.048Z,2080
2017-07-12T10:00:16.361Z,2700
2017-07-12T10:01:16.670Z,4795
2017-07-12T10:02:16.650Z,4310
2017-07-12T10:03:16.037Z,1540
2017-07-12T10:04:16.028Z,2325
2017-07-12T10:05:16.637Z,1700
2017-07-12T10:06:16.331Z,5845
2017-07-12T10:07:16.007Z,4600
2017-07-12T10:08:16.627Z,4250
2017-07-12T10:09:16.625Z,1545
2017-07-12T10:10:16.301Z,2140
2017-07-12T10:11:16.306Z,1170
2017-07-12T10:12:16.622Z,1360
2017-07-12T10:13:16.594Z,1975
2017-07-12T10:14:16.595Z,4940
2017-07-12T10:15:16.607Z,4575
2017-07-12T10:16:16.578Z,2820
2017-07-12T10:17:15.945Z,1440
2017-07-12T10:18:15.950Z,4570
2017-07-12T10:19:16.245Z,4635
2017-07-12T10:20:16.271Z,4200
2017-07-12T10:21:15.934Z,5560
2017-07-12T10:22:16.236Z,5245
2017-07-12T10:23:15.289Z,3810
2017-07-12T10:24:15.915Z,5145
2017-07-12T10:25:16.531Z,5150
2017-07-12T10:26:16.515Z,4810
2017-07-12T10:27:16.204Z,5905
2017-07-12T10:28:16.510Z,5675
2017-07-12T10:29:16.190Z,4245
2017-07-12T10:30:16.549Z,2670
2017-07-12T10:31:16.186Z,3060
2017-07-12T10:32:15.875Z,2685
2017-07-12T10:33:16.502Z,6185
2017-07-12T10:34:16.169Z,3355
2017-07-12T10:35:16.461Z,1875
2017-07-12T10:36:16.159Z,1585
2017-07-12T10:37:16.161Z,1630
2017-07-12T10:38:15.833Z,1620
2017-07-12T10:39:15.515Z,1390
2017-07-12T10:40:16.124Z,1730
2017-07-12T10:41:16.133Z,1935
2017-07-12T10:42:16.422Z,2230
2017-07-12T10:43:15.810Z,2525
2017-07-12T10:44:16.110Z,2080
2017-07-12T10:45:15.788Z,1735
2017-07-12T10:46:16.086Z,2585
2017-07-12T10:47:15.788Z,1940
2017-07-12T10:48:16.075Z,1610
2017-07-12T10:49:16.076Z,1410
2017-07-12T10:50:16.070Z,1535
2017-07-12T10:51:16.069Z,2165
2017-07-12T10:52:16.058Z,2380
2017-07-12T10:53:16.362Z,3520
2017-07-12T10:54:15.731Z,2145
2017-07-12T10:55:16.333Z,2335
2017-07-12T10:56:15.710Z,1565
2017-07-12T10:57:16.322Z,1360
2017-07-12T10:58:16.005Z,1405
2017-07-12T10:59:15.994Z,1645
2017-07-12T11:00:15.978Z,1500
2017-07-12T11:01:16.292Z,1285
2017-07-12T11:02:15.690Z,1375
2017-07-12T11:03:16.286Z,1380
2017-07-12T11:04:15.957Z,1380
2017-07-12T11:05:16.275Z,1045
2017-07-12T11:06:15.943Z,925
2017-07-12T11:07:16.255Z,1210
2017-07-12T11:08:15.938Z,1890
2017-07-12T11:09:15.915Z,7030
2017-07-12T11:10:15.923Z,2060
2017-07-12T11:11:16.207Z,3105
2017-07-12T11:12:15.584Z,5155
2017-07-12T11:13:15.883Z,6500
2017-07-12T11:14:15.878Z,2070
2017-07-12T11:15:15.873Z,2110
2017-07-12T11:16:15.560Z,5525
2017-07-12T11:17:15.866Z,1985
2017-07-12T11:18:16.179Z,2560
2017-07-12T11:19:15.840Z,2710
2017-07-12T11:20:15.825Z,2070
2017-07-12T11:21:16.140Z,2805
2017-07-12T11:22:15.834Z,2685
2017-07-12T11:23:14.893Z,2140
2017-07-12T11:24:16.121Z,2730
2017-07-12T11:25:16.122Z,2465
2017-07-12T11:26:16.121Z,1260
2017-07-12T11:27:15.798Z,1515
2017-07-12T11:28:16.121Z,1355
2017-07-12T11:29:16.090Z,1680
2017-07-12T11:30:16.082Z,2175
2017-07-12T11:31:16.087Z,1920
2017-07-12T11:32:15.786Z,1095
2017-07-12T11:33:16.061Z,1195
2017-07-12T11:34:15.740Z,1430
2017-07-12T11:35:16.059Z,1175
2017-07-12T11:36:16.029Z,1130
2017-07-12T11:37:15.407Z,1165
2017-07-12T11:38:16.027Z,1540
2017-07-12T11:39:15.402Z,4055
2017-07-12T11:40:15.695Z,6260
2017-07-12T11:41:15.694Z,6700
2017-07-12T11:42:15.684Z,7730
2017-07-12T11:43:15.969Z,7135
2017-07-12T11:44:15.660Z,6845
2017-07-12T11:45:15.639Z,6915
2017-07-12T11:46:15.956Z,3600
2017-07-12T11:47:15.643Z,4230
2017-07-12T11:48:15.627Z,5650
2017-07-12T11:49:15.941Z,4700
2017-07-12T11:50:15.619Z,3915
2017-07-12T11:51:15.920Z,2880
2017-07-12T11:52:15.905Z,3230
2017-07-12T11:53:15.906Z,2735
2017-07-12T11:54:15.906Z,2325
2017-07-12T11:55:15.277Z,3800
2017-07-12T11:56:15.580Z,3300
2017-07-12T11:57:15.578Z,3055
2017-07-12T11:58:15.562Z,3385
2017-07-12T11:59:15.879Z,3015
2017-07-12T12:00:15.245Z,3860
2017-07-12T12:01:15.545Z,3350
2017-07-12T12:02:15.853Z,3345
2017-07-12T12:03:15.544Z,3590
2017-07-12T12:04:15.534Z,3510
2017-07-12T12:05:15.825Z,3790
2017-07-12T12:06:14.892Z,2845
2017-07-12T12:07:15.199Z,2155
2017-07-12T12:08:14.885Z,2905
2017-07-12T12:09:15.824Z,2350
2017-07-12T12:10:15.818Z,2875
2017-07-12T12:11:15.488Z,2795
2017-07-12T12:12:15.788Z,3255
2017-07-12T12:13:15.148Z,4095
2017-07-12T12:14:15.770Z,6275
2017-07-12T12:15:15.148Z,4645
2017-07-12T12:16:15.757Z,5720
2017-07-12T12:17:15.141Z,5305
2017-07-12T12:18:14.814Z,4590
2017-07-12T12:19:14.508Z,3990
2017-07-12T12:20:15.129Z,2645
2017-07-12T12:21:15.425Z,2735
2017-07-12T12:22:15.107Z,2410
2017-07-12T12:23:15.098Z,1045
2017-07-12T12:24:15.396Z,825
2017-07-12T12:25:15.077Z,1255
2017-07-12T12:26:15.390Z,1945
2017-07-12T12:27:15.695Z,4255
2017-07-12T12:28:15.700Z,1415
2017-07-12T12:29:15.670Z,1140
2017-07-12T12:30:15.674Z,875
2017-07-12T12:31:15.049Z,895
2017-07-12T12:32:15.034Z,755
2017-07-12T12:33:15.027Z,1045
2017-07-12T12:34:15.019Z,1110
2017-07-12T12:35:14.695Z,810
2017-07-12T12:36:15.312Z,560
2017-07-12T12:37:14.993Z,505
2017-07-12T12:38:15.297Z,505
2017-07-12T12:39:15.283Z,405
2017-07-12T12:40:15.601Z,300
2017-07-12T12:41:14.642Z,265
2017-07-12T12:42:14.949Z,215
2017-07-12T12:43:14.952Z,240
2017-07-12T12:44:15.568Z,395
2017-07-12T12:45:15.252Z,430
2017-07-12T12:46:15.532Z,590
2017-07-12T12:47:15.211Z,900
2017-07-12T12:48:15.664Z,625
2017-07-12T12:49:15.516Z,1235
2017-07-12T12:50:15.525Z,1300
2017-07-12T12:51:14.585Z,1055
2017-07-12T12:52:15.177Z,1615
2017-07-12T12:53:15.694Z,1650
2017-07-12T12:54:15.480Z,1740
2017-07-12T12:55:15.463Z,1310
2017-07-12T12:56:15.470Z,2190
2017-07-12T12:57:15.148Z,1435
2017-07-12T12:58:15.677Z,1355
2017-07-12T12:59:15.436Z,1590
2017-07-12T13:00:15.550Z,1915
2017-07-12T13:01:15.418Z,2165
2017-07-12T13:02:15.088Z,1830
2017-07-12T13:03:15.284Z,1720
2017-07-12T13:04:14.766Z,1110
2017-07-12T13:05:15.052Z,1160
2017-07-12T13:06:15.053Z,2180
2017-07-12T13:07:15.355Z,1320
2017-07-12T13:08:15.360Z,960
2017-07-12T13:09:15.576Z,1175
2017-07-12T13:10:15.344Z,1080
2017-07-12T13:11:15.313Z,955
2017-07-12T13:12:15.301Z,675
2017-07-12T13:13:15.305Z,495
2017-07-12T13:14:15.285Z,410
2017-07-12T13:15:14.655Z,440
2017-07-12T13:16:15.283Z,765
2017-07-12T13:17:14.642Z,595
2017-07-12T13:18:14.946Z,550
2017-07-12T13:19:14.924Z,1525
2017-07-12T13:20:15.237Z,1000
2017-07-12T13:21:15.233Z,1325
2017-07-12T13:22:15.214Z,1460
2017-07-12T13:23:13.962Z,1465
2017-07-12T13:24:15.191Z,1490
2017-07-12T13:25:15.184Z,2720
2017-07-12T13:26:14.865Z,5270
2017-07-12T13:27:14.541Z,1750
2017-07-12T13:28:15.158Z,1625
2017-07-12T13:29:15.144Z,1515
2017-07-12T13:30:14.832Z,1710
2017-07-12T13:31:14.832Z,2265
2017-07-12T13:32:15.125Z,1625
2017-07-12T13:33:15.113Z,1450
2017-07-12T13:34:14.789Z,1820
2017-07-12T13:35:14.857Z,1915
2017-07-12T13:36:15.083Z,1600
2017-07-12T13:37:14.761Z,1245
2017-07-12T13:38:14.746Z,1415
2017-07-12T13:39:15.039Z,1530
2017-07-12T13:40:14.924Z,1065
2017-07-12T13:41:15.227Z,1580
2017-07-12T13:42:14.400Z,2075
2017-07-12T13:43:15.012Z,2325
2017-07-12T13:44:14.381Z,1835
2017-07-12T13:45:15.002Z,1855
2017-07-12T13:46:14.675Z,1555
2017-07-12T13:47:14.663Z,1160
2017-07-12T13:48:14.965Z,2675
2017-07-12T13:49:14.640Z,1955
2017-07-12T13:50:14.634Z,1890
2017-07-12T13:51:15.137Z,2100
2017-07-12T13:52:14.930Z,2095
2017-07-12T13:53:14.933Z,4035
2017-07-12T13:54:14.907Z,4045
2017-07-12T13:55:14.596Z,3560
2017-07-12T13:56:14.883Z,3785